^^
TXWeather Station Historical Data
Daily Summary for March 07, 2022 Units:  English    Metric   Both
Daily Weekly Monthly Yearly Custom
  High: Low: Average:
Temperature: 73.0 °F 50.0 °F 57.3 °F
Dew Point: 68.0 °F 38.0 °F 46.8 °F
Humidity: 87% 48% 69%
Wind Speed: 22mph 0mph 12.6mph
Wind Gust: 25mph - -
Wind- - WSW
Pressure: 30.3 in 30.0 in -
Precipitation: 0.000 in    
Historical Graphs
 
 
Tabular Data for March 07, 2022
Time Temperature Dew Point Pressure Wind Wind Speed Wind Gust Humidity Rainfall Rate (Hourly) solar
00:04 73.0 °F 68.0 °F 30.0 in SSE 5 mph 7 mph 86% 0.000 in 0.00 W/m2
00:09 73.0 °F 68.0 °F 30.0 in SSE 4 mph 5 mph 86% 0.000 in 0.00 W/m2
00:14 73.0 °F 68.0 °F 30.0 in SSE 5 mph 5 mph 86% 0.000 in 0.00 W/m2
00:19 73.0 °F 68.0 °F 30.0 in SSE 6 mph 6 mph 86% 0.000 in 0.00 W/m2
00:24 73.0 °F 68.0 °F 30.0 in SSE 5 mph 5 mph 86% 0.000 in 0.00 W/m2
00:29 73.0 °F 68.0 °F 30.0 in SSE 7 mph 8 mph 86% 0.000 in 0.00 W/m2
00:34 73.0 °F 68.0 °F 30.0 in SSE 5 mph 8 mph 86% 0.000 in 0.00 W/m2
00:39 73.0 °F 68.0 °F 30.0 in SSE 5 mph 6 mph 86% 0.000 in 0.00 W/m2
00:44 73.0 °F 68.0 °F 30.0 in South 5 mph 5 mph 86% 0.000 in 0.00 W/m2
00:49 73.0 °F 68.0 °F 30.0 in South 2 mph 5 mph 86% 0.000 in 0.00 W/m2
00:54 73.0 °F 68.0 °F 30.0 in South 3 mph 3 mph 86% 0.000 in 0.00 W/m2
00:59 73.0 °F 68.0 °F 30.0 in South 5 mph 5 mph 86% 0.000 in 0.00 W/m2
01:04 73.0 °F 68.0 °F 30.0 in South 3 mph 3 mph 86% 0.000 in 0.00 W/m2
01:09 73.0 °F 68.0 °F 30.0 in South 3 mph 3 mph 86% 0.000 in 0.00 W/m2
01:14 72.0 °F 68.0 °F 30.0 in South 2 mph 2 mph 86% 0.000 in 0.00 W/m2
01:19 72.0 °F 68.0 °F 30.0 in South 2 mph 3 mph 86% 0.000 in 0.00 W/m2
01:24 72.0 °F 68.0 °F 30.0 in South 1 mph 2 mph 86% 0.000 in 0.00 W/m2
01:29 72.0 °F 68.0 °F 30.0 in South 1 mph 1 mph 86% 0.000 in 0.00 W/m2
01:34 72.0 °F 68.0 °F 30.0 in South 1 mph 1 mph 86% 0.000 in 0.00 W/m2
01:39 72.0 °F 68.0 °F 30.0 in South 1 mph 1 mph 86% 0.000 in 0.00 W/m2
01:44 72.0 °F 68.0 °F 30.0 in South 1 mph 1 mph 86% 0.000 in 0.00 W/m2
01:49 72.0 °F 68.0 °F 30.0 in South 1 mph 1 mph 86% 0.000 in 0.00 W/m2
01:54 72.0 °F 68.0 °F 30.0 in South 3 mph 3 mph 86% 0.000 in 0.00 W/m2
01:59 72.0 °F 68.0 °F 30.0 in South 3 mph 3 mph 86% 0.000 in 0.00 W/m2
02:04 72.0 °F 68.0 °F 30.0 in South 2 mph 3 mph 86% 0.000 in 0.00 W/m2
02:09 72.0 °F 68.0 °F 30.0 in South 2 mph 2 mph 86% 0.000 in 0.00 W/m2
02:14 72.0 °F 68.0 °F 30.0 in South 1 mph 2 mph 86% 0.000 in 0.00 W/m2
02:19 72.0 °F 68.0 °F 30.0 in Calm     86% 0.000 in 0.00 W/m2
02:24 72.0 °F 68.0 °F 30.0 in South 1 mph 2 mph 86% 0.000 in 0.00 W/m2
02:29 72.0 °F 68.0 °F 30.0 in South 2 mph 2 mph 86% 0.000 in 0.00 W/m2
02:34 72.0 °F 68.0 °F 30.0 in South 2 mph 2 mph 86% 0.000 in 0.00 W/m2
02:39 72.0 °F 67.0 °F 30.0 in South 1 mph 1 mph 86% 0.000 in 0.00 W/m2
02:44 72.0 °F 67.0 °F 30.0 in South 1 mph 1 mph 86% 0.000 in 0.00 W/m2
02:49 72.0 °F 67.0 °F 30.0 in Calm   1 mph 86% 0.000 in 0.00 W/m2
02:54 72.0 °F 67.0 °F 30.0 in Calm     86% 0.000 in 0.00 W/m2
02:59 71.0 °F 67.0 °F 30.0 in Calm     86% 0.000 in 0.00 W/m2
03:04 71.0 °F 67.0 °F 30.0 in Calm     86% 0.000 in 0.00 W/m2
03:09 71.0 °F 67.0 °F 30.0 in Calm     86% 0.000 in 0.00 W/m2
03:14 71.0 °F 67.0 °F 30.0 in South 1 mph 1 mph 86% 0.000 in 0.00 W/m2
03:19 71.0 °F 67.0 °F 30.0 in South 1 mph 1 mph 86% 0.000 in 0.00 W/m2
03:24 71.0 °F 67.0 °F 30.0 in South 1 mph 1 mph 86% 0.000 in 0.00 W/m2
03:29 71.0 °F 67.0 °F 30.0 in South 2 mph 2 mph 86% 0.000 in 0.00 W/m2
03:34 71.0 °F 67.0 °F 30.0 in South 2 mph 2 mph 86% 0.000 in 0.00 W/m2
03:39 71.0 °F 66.0 °F 30.0 in South 2 mph 2 mph 86% 0.000 in 0.00 W/m2
03:44 71.0 °F 66.0 °F 30.0 in South 1 mph 2 mph 86% 0.000 in 0.00 W/m2
03:49 71.0 °F 66.0 °F 30.0 in Calm   1 mph 86% 0.000 in 0.00 W/m2
03:54 71.0 °F 66.0 °F 30.0 in South 2 mph 2 mph 87% 0.000 in 0.00 W/m2
03:59 71.0 °F 67.0 °F 30.0 in South 2 mph 2 mph 87% 0.000 in 0.00 W/m2
04:04 71.0 °F 67.0 °F 30.0 in West 14 mph 14 mph 87% 0.000 in 0.00 W/m2
04:09 71.0 °F 67.0 °F 30.0 in WNW 16 mph 16 mph 87% 0.000 in 0.00 W/m2
04:14 68.0 °F 62.0 °F 30.0 in NW 20 mph 20 mph 82% 0.000 in 0.00 W/m2
04:19 64.0 °F 58.0 °F 30.0 in NW 20 mph 20 mph 80% 0.000 in 0.00 W/m2
04:24 63.0 °F 56.0 °F 30.0 in NW 16 mph 20 mph 80% 0.000 in 0.00 W/m2
04:29 61.0 °F 54.0 °F 30.1 in NW 15 mph 16 mph 79% 0.000 in 0.00 W/m2
04:34 60.0 °F 53.0 °F 30.1 in NNW 16 mph 17 mph 80% 0.000 in 0.00 W/m2
04:39 59.0 °F 53.0 °F 30.1 in NNW 19 mph 23 mph 80% 0.000 in 0.00 W/m2
04:44 58.0 °F 52.0 °F 30.1 in NNW 21 mph 23 mph 80% 0.000 in 0.00 W/m2
04:49 57.0 °F 50.0 °F 30.1 in NNW 18 mph 22 mph 79% 0.000 in 0.00 W/m2
04:54 56.0 °F 50.0 °F 30.1 in NNW 21 mph 21 mph 79% 0.000 in 0.00 W/m2
04:59 56.0 °F 49.0 °F 30.1 in NNW 17 mph 17 mph 79% 0.000 in 0.00 W/m2
05:04 55.0 °F 49.0 °F 30.1 in NNW 19 mph 19 mph 80% 0.000 in 0.00 W/m2
05:09 55.0 °F 49.0 °F 30.1 in NNW 15 mph 19 mph 80% 0.000 in 0.00 W/m2
05:14 55.0 °F 49.0 °F 30.1 in NNW 20 mph 20 mph 80% 0.000 in 0.00 W/m2
05:19 55.0 °F 49.0 °F 30.1 in NNW 16 mph 16 mph 80% 0.000 in 0.00 W/m2
05:24 55.0 °F 49.0 °F 30.1 in North 15 mph 16 mph 80% 0.000 in 0.00 W/m2
05:29 54.0 °F 48.0 °F 30.1 in NNW 17 mph 17 mph 80% 0.000 in 0.00 W/m2
05:34 54.0 °F 48.0 °F 30.1 in NNW 20 mph 20 mph 80% 0.000 in 0.00 W/m2
05:39 54.0 °F 48.0 °F 30.1 in North 19 mph 20 mph 80% 0.000 in 0.00 W/m2
05:44 54.0 °F 48.0 °F 30.1 in NNW 17 mph 19 mph 80% 0.000 in 0.00 W/m2
05:49 53.0 °F 48.0 °F 30.1 in NNW 19 mph 19 mph 80% 0.000 in 0.00 W/m2
05:54 53.0 °F 48.0 °F 30.1 in North 18 mph 25 mph 80% 0.000 in 0.00 W/m2
05:59 53.0 °F 47.0 °F 30.1 in North 21 mph 22 mph 79% 0.000 in 0.00 W/m2
06:04 53.0 °F 47.0 °F 30.1 in NNW 21 mph 21 mph 79% 0.000 in 0.00 W/m2
06:09 53.0 °F 47.0 °F 30.1 in North 21 mph 21 mph 79% 0.000 in 0.00 W/m2
06:14 53.0 °F 47.0 °F 30.1 in North 16 mph 16 mph 79% 0.000 in 0.00 W/m2
06:19 53.0 °F 47.0 °F 30.1 in NNW 20 mph 20 mph 79% 0.000 in 0.00 W/m2
06:24 53.0 °F 46.0 °F 30.1 in North 19 mph 21 mph 78% 0.000 in 0.00 W/m2
06:29 53.0 °F 46.0 °F 30.1 in North 13 mph 15 mph 78% 0.000 in 0.00 W/m2
06:34 53.0 °F 46.0 °F 30.1 in North 14 mph 16 mph 77% 0.000 in 0.00 W/m2
06:39 53.0 °F 46.0 °F 30.1 in NNW 15 mph 16 mph 77% 0.000 in 0.00 W/m2
06:44 52.0 °F 45.0 °F 30.1 in North 17 mph 17 mph 77% 0.000 in 0.00 W/m2
06:49 52.0 °F 45.0 °F 30.1 in North 14 mph 17 mph 77% 0.000 in 0.00 W/m2
06:54 52.0 °F 45.0 °F 30.1 in North 18 mph 18 mph 77% 0.000 in 0.00 W/m2
06:59 52.0 °F 45.0 °F 30.1 in NNW 15 mph 18 mph 77% 0.000 in 0.00 W/m2
07:04 52.0 °F 45.0 °F 30.1 in North 20 mph 20 mph 76% 0.000 in 0.00 W/m2
07:09 52.0 °F 45.0 °F 30.1 in North 16 mph 16 mph 76% 0.000 in 0.00 W/m2
07:14 52.0 °F 45.0 °F 30.2 in North 13 mph 15 mph 76% 0.000 in 0.00 W/m2
07:19 52.0 °F 45.0 °F 30.2 in NW 13 mph 14 mph 76% 0.000 in 0.00 W/m2
07:24 52.0 °F 45.0 °F 30.2 in NNW 18 mph 18 mph 76% 0.000 in 5.00 W/m2
07:29 51.0 °F 44.0 °F 30.2 in NNW 21 mph 21 mph 77% 0.000 in 7.00 W/m2
07:34 51.0 °F 44.0 °F 30.2 in NNW 16 mph 16 mph 77% 0.000 in 7.00 W/m2
07:39 51.0 °F 44.0 °F 30.2 in NNW 15 mph 21 mph 76% 0.000 in 9.00 W/m2
07:44 51.0 °F 44.0 °F 30.2 in NNW 14 mph 14 mph 77% 0.000 in 12.00 W/m2
07:49 51.0 °F 44.0 °F 30.2 in NNW 10 mph 14 mph 77% 0.000 in 18.00 W/m2
07:54 51.0 °F 44.0 °F 30.2 in NNW 14 mph 15 mph 78% 0.000 in 30.00 W/m2
07:59 51.0 °F 44.0 °F 30.2 in NNW 13 mph 13 mph 78% 0.000 in 42.00 W/m2
08:04 51.0 °F 44.0 °F 30.2 in NNW 15 mph 16 mph 78% 0.000 in 72.00 W/m2
08:09 51.0 °F 44.0 °F 30.2 in North 18 mph 18 mph 77% 0.000 in 81.00 W/m2
08:14 51.0 °F 44.0 °F 30.2 in NNW 15 mph 15 mph 77% 0.000 in 104.00 W/m2
08:19 51.0 °F 44.0 °F 30.2 in NNW 14 mph 15 mph 77% 0.000 in 97.00 W/m2
08:24 51.0 °F 44.0 °F 30.2 in NNW 15 mph 16 mph 77% 0.000 in 91.00 W/m2
08:29 51.0 °F 44.0 °F 30.2 in North 16 mph 16 mph 76% 0.000 in 88.00 W/m2
08:34 51.0 °F 44.0 °F 30.2 in North 17 mph 17 mph 76% 0.000 in 86.00 W/m2
08:39 51.0 °F 43.0 °F 30.2 in North 16 mph 16 mph 75% 0.000 in 77.00 W/m2
08:44 51.0 °F 43.0 °F 30.2 in NNW 16 mph 16 mph 75% 0.000 in 109.00 W/m2
08:49 51.0 °F 43.0 °F 30.2 in NNW 12 mph 16 mph 75% 0.000 in 146.00 W/m2
08:54 51.0 °F 44.0 °F 30.2 in NNW 13 mph 15 mph 75% 0.000 in 199.00 W/m2
08:59 51.0 °F 44.0 °F 30.2 in NNW 13 mph 16 mph 75% 0.000 in 199.00 W/m2
09:04 51.0 °F 43.0 °F 30.2 in North 18 mph 20 mph 74% 0.000 in 139.00 W/m2
09:09 51.0 °F 43.0 °F 30.2 in North 15 mph 15 mph 74% 0.000 in 139.00 W/m2
09:14 51.0 °F 43.0 °F 30.2 in NNW 13 mph 14 mph 74% 0.000 in 149.00 W/m2
09:19 51.0 °F 43.0 °F 30.2 in NNW 12 mph 14 mph 73% 0.000 in 118.00 W/m2
09:24 51.0 °F 43.0 °F 30.2 in North 14 mph 15 mph 73% 0.000 in 105.00 W/m2
09:29 51.0 °F 42.0 °F 30.2 in NNW 14 mph 14 mph 72% 0.000 in 95.00 W/m2
09:34 51.0 °F 42.0 °F 30.2 in NNW 15 mph 17 mph 72% 0.000 in 93.00 W/m2
09:39 50.0 °F 42.0 °F 30.2 in North 17 mph 17 mph 72% 0.000 in 104.00 W/m2
09:44 50.0 °F 42.0 °F 30.2 in North 12 mph 13 mph 72% 0.000 in 118.00 W/m2
09:49 50.0 °F 42.0 °F 30.2 in North 15 mph 15 mph 72% 0.000 in 127.00 W/m2
09:54 51.0 °F 42.0 °F 30.2 in North 14 mph 15 mph 72% 0.000 in 116.00 W/m2
09:59 51.0 °F 42.0 °F 30.2 in North 17 mph 17 mph 72% 0.000 in 109.00 W/m2
10:04 51.0 °F 42.0 °F 30.2 in North 14 mph 14 mph 72% 0.000 in 134.00 W/m2
10:09 51.0 °F 42.0 °F 30.2 in North 10 mph 14 mph 72% 0.000 in 149.00 W/m2
10:14 51.0 °F 42.0 °F 30.2 in North 15 mph 17 mph 73% 0.000 in 204.00 W/m2
10:19 51.0 °F 42.0 °F 30.2 in North 13 mph 17 mph 73% 0.000 in 241.00 W/m2
10:24 51.0 °F 42.0 °F 30.2 in NNW 15 mph 15 mph 73% 0.000 in 283.00 W/m2
10:29 51.0 °F 42.0 °F 30.3 in NNW 14 mph 15 mph 73% 0.000 in 283.00 W/m2
10:34 51.0 °F 42.0 °F 30.3 in NNW 15 mph 15 mph 72% 0.000 in 258.00 W/m2
10:39 51.0 °F 42.0 °F 30.3 in North 12 mph 14 mph 72% 0.000 in 239.00 W/m2
10:44 51.0 °F 42.0 °F 30.3 in NNW 17 mph 17 mph 71% 0.000 in 197.00 W/m2
10:49 51.0 °F 42.0 °F 30.3 in North 14 mph 17 mph 70% 0.000 in 192.00 W/m2
10:54 51.0 °F 42.0 °F 30.3 in NNW 13 mph 13 mph 70% 0.000 in 193.00 W/m2
10:59 51.0 °F 42.0 °F 30.3 in NNW 13 mph 13 mph 69% 0.000 in 216.00 W/m2
11:04 52.0 °F 42.0 °F 30.2 in NNW 12 mph 14 mph 69% 0.000 in 211.00 W/m2
11:09 52.0 °F 42.0 °F 30.2 in North 14 mph 14 mph 69% 0.000 in 221.00 W/m2
11:14 52.0 °F 42.0 °F 30.3 in NNW 14 mph 14 mph 68% 0.000 in 223.00 W/m2
11:19 52.0 °F 42.0 °F 30.3 in NNW 14 mph 15 mph 67% 0.000 in 209.00 W/m2
11:24 52.0 °F 42.0 °F 30.3 in NNW 16 mph 17 mph 67% 0.000 in 246.00 W/m2
11:29 52.0 °F 42.0 °F 30.2 in North 13 mph 18 mph 67% 0.000 in 411.00 W/m2
11:34 53.0 °F 42.0 °F 30.2 in NNW 16 mph 17 mph 66% 0.000 in 642.00 W/m2
11:39 54.0 °F 42.0 °F 30.2 in NNW 16 mph 17 mph 66% 0.000 in 592.00 W/m2
11:44 56.0 °F 43.0 °F 30.2 in North 20 mph 21 mph 64% 0.000 in 1053.00 W/m2
11:49 56.0 °F 43.0 °F 30.2 in North 15 mph 19 mph 61% 0.000 in 1053.00 W/m2
11:54 56.0 °F 43.0 °F 30.2 in North 16 mph 16 mph 61% 0.000 in 547.00 W/m2
11:59 56.0 °F 42.0 °F 30.2 in North 22 mph 22 mph 60% 0.000 in 455.00 W/m2
12:04 56.0 °F 43.0 °F 30.2 in North 17 mph 17 mph 61% 0.000 in 513.00 W/m2
12:09 56.0 °F 43.0 °F 30.2 in North 12 mph 14 mph 61% 0.000 in 513.00 W/m2
12:14 57.0 °F 43.0 °F 30.2 in NNW 14 mph 14 mph 61% 0.000 in 422.00 W/m2
12:19 56.0 °F 42.0 °F 30.2 in NNW 13 mph 14 mph 60% 0.000 in 436.00 W/m2
12:24 56.0 °F 42.0 °F 30.2 in NNW 15 mph 15 mph 60% 0.000 in 476.00 W/m2
12:29 56.0 °F 42.0 °F 30.2 in NNW 15 mph 16 mph 60% 0.000 in 450.00 W/m2
12:34 57.0 °F 43.0 °F 30.2 in NNW 15 mph 16 mph 60% 0.000 in 466.00 W/m2
12:39 57.0 °F 43.0 °F 30.2 in North 15 mph 15 mph 59% 0.000 in 513.00 W/m2
12:44 57.0 °F 43.0 °F 30.2 in North 15 mph 17 mph 58% 0.000 in 443.00 W/m2
12:49 59.0 °F 43.0 °F 30.2 in North 13 mph 13 mph 57% 0.000 in 1018.00 W/m2
12:54 60.0 °F 44.0 °F 30.2 in North 13 mph 14 mph 57% 0.000 in 986.00 W/m2
12:59 60.0 °F 44.0 °F 30.2 in North 14 mph 14 mph 55% 0.000 in 1034.00 W/m2
13:04 61.0 °F 45.0 °F 30.2 in North 14 mph 14 mph 55% 0.000 in 1005.00 W/m2
13:09 62.0 °F 45.0 °F 30.2 in NNE 19 mph 21 mph 54% 0.000 in 1079.00 W/m2
13:14 62.0 °F 46.0 °F 30.2 in NNW 12 mph 21 mph 56% 0.000 in 517.00 W/m2
13:19 61.0 °F 46.0 °F 30.2 in NNW 13 mph 16 mph 58% 0.000 in 598.00 W/m2
13:24 61.0 °F 45.0 °F 30.2 in NNW 14 mph 16 mph 56% 0.000 in 561.00 W/m2
13:29 62.0 °F 46.0 °F 30.2 in NNW 9 mph 13 mph 57% 0.000 in 954.00 W/m2
13:34 62.0 °F 46.0 °F 30.2 in NNW 15 mph 15 mph 57% 0.000 in 954.00 W/m2
13:39 62.0 °F 46.0 °F 30.2 in NNW 13 mph 13 mph 56% 0.000 in 976.00 W/m2
13:44 62.0 °F 46.0 °F 30.2 in NNW 14 mph 15 mph 57% 0.000 in 976.00 W/m2
13:49 62.0 °F 45.0 °F 30.2 in NNW 12 mph 13 mph 54% 0.000 in 958.00 W/m2
13:54 62.0 °F 45.0 °F 30.2 in NNW 15 mph 15 mph 54% 0.000 in 731.00 W/m2
13:59 61.0 °F 45.0 °F 30.2 in NNW 18 mph 18 mph 55% 0.000 in 705.00 W/m2
14:04 61.0 °F 44.0 °F 30.2 in NNW 15 mph 15 mph 54% 0.000 in 431.00 W/m2
14:09 60.0 °F 44.0 °F 30.2 in NNW 15 mph 15 mph 56% 0.000 in 497.00 W/m2
14:14 61.0 °F 45.0 °F 30.2 in NNW 13 mph 15 mph 56% 0.000 in 619.00 W/m2
14:19 61.0 °F 44.0 °F 30.2 in North 17 mph 17 mph 54% 0.000 in 533.00 W/m2
14:24 61.0 °F 44.0 °F 30.2 in North 16 mph 17 mph 53% 0.000 in 615.00 W/m2
14:29 61.0 °F 43.0 °F 30.2 in North 14 mph 20 mph 53% 0.000 in 515.00 W/m2
14:34 60.0 °F 43.0 °F 30.2 in North 16 mph 20 mph 52% 0.000 in 457.00 W/m2
14:39 60.0 °F 42.0 °F 30.2 in North 20 mph 20 mph 53% 0.000 in 501.00 W/m2
14:44 59.0 °F 42.0 °F 30.2 in North 17 mph 17 mph 53% 0.000 in 471.00 W/m2
14:49 60.0 °F 42.0 °F 30.2 in North 16 mph 18 mph 52% 0.000 in 471.00 W/m2
14:54 60.0 °F 41.0 °F 30.2 in North 18 mph 21 mph 51% 0.000 in 413.00 W/m2
14:59 60.0 °F 41.0 °F 30.2 in NNW 16 mph 16 mph 50% 0.000 in 459.00 W/m2
15:04 60.0 °F 40.0 °F 30.2 in NNW 14 mph 16 mph 49% 0.000 in 415.00 W/m2
15:09 60.0 °F 40.0 °F 30.2 in NNW 19 mph 19 mph 48% 0.000 in 345.00 W/m2
15:14 59.0 °F 40.0 °F 30.2 in NNW 17 mph 19 mph 49% 0.000 in 265.00 W/m2
15:19 59.0 °F 40.0 °F 30.2 in North 17 mph 17 mph 50% 0.000 in 223.00 W/m2
15:24 59.0 °F 40.0 °F 30.2 in North 17 mph 18 mph 50% 0.000 in 225.00 W/m2
15:29 59.0 °F 40.0 °F 30.2 in North 14 mph 18 mph 50% 0.000 in 207.00 W/m2
15:34 59.0 °F 41.0 °F 30.2 in NNE 18 mph 18 mph 51% 0.000 in 174.00 W/m2
15:39 59.0 °F 41.0 °F 30.2 in North 13 mph 15 mph 51% 0.000 in 176.00 W/m2
15:44 59.0 °F 41.0 °F 30.2 in North 11 mph 13 mph 52% 0.000 in 156.00 W/m2
15:49 59.0 °F 41.0 °F 30.2 in NNE 13 mph 14 mph 52% 0.000 in 139.00 W/m2
15:54 59.0 °F 41.0 °F 30.2 in North 14 mph 14 mph 52% 0.000 in 111.00 W/m2
15:59 58.0 °F 41.0 °F 30.2 in North 13 mph 13 mph 52% 0.000 in 116.00 W/m2
16:04 58.0 °F 41.0 °F 30.2 in NNW 11 mph 13 mph 53% 0.000 in 113.00 W/m2
16:09 58.0 °F 41.0 °F 30.2 in NNW 11 mph 13 mph 53% 0.000 in 123.00 W/m2
16:14 58.0 °F 41.0 °F 30.2 in North 14 mph 14 mph 53% 0.000 in 155.00 W/m2
16:19 58.0 °F 41.0 °F 30.2 in North 15 mph 18 mph 53% 0.000 in 211.00 W/m2
16:24 58.0 °F 42.0 °F 30.2 in NNW 15 mph 15 mph 54% 0.000 in 199.00 W/m2
16:29 58.0 °F 42.0 °F 30.2 in NW 13 mph 13 mph 54% 0.000 in 130.00 W/m2
16:34 58.0 °F 41.0 °F 30.2 in NNW 10 mph 14 mph 54% 0.000 in 109.00 W/m2
16:39 58.0 °F 42.0 °F 30.2 in NW 12 mph 12 mph 55% 0.000 in 84.00 W/m2
16:44 58.0 °F 42.0 °F 30.1 in NNW 11 mph 12 mph 55% 0.000 in 76.00 W/m2
16:49 57.0 °F 42.0 °F 30.1 in NNW 14 mph 14 mph 56% 0.000 in 76.00 W/m2
16:54 57.0 °F 42.0 °F 30.1 in NW 10 mph 13 mph 56% 0.000 in 76.00 W/m2
16:59 57.0 °F 41.0 °F 30.2 in NNW 12 mph 13 mph 56% 0.000 in 63.00 W/m2
17:04 57.0 °F 41.0 °F 30.2 in NW 13 mph 13 mph 56% 0.000 in 65.00 W/m2
17:09 57.0 °F 41.0 °F 30.1 in NNW 12 mph 14 mph 56% 0.000 in 60.00 W/m2
17:14 57.0 °F 41.0 °F 30.1 in NNW 11 mph 13 mph 56% 0.000 in 39.00 W/m2
17:19 56.0 °F 41.0 °F 30.1 in NNW 14 mph 14 mph 57% 0.000 in 30.00 W/m2
17:24 56.0 °F 41.0 °F 30.1 in North 14 mph 17 mph 57% 0.000 in 25.00 W/m2
17:29 56.0 °F 41.0 °F 30.2 in North 10 mph 13 mph 57% 0.000 in 26.00 W/m2
17:34 56.0 °F 41.0 °F 30.2 in NNW 13 mph 14 mph 57% 0.000 in 26.00 W/m2
17:39 56.0 °F 41.0 °F 30.2 in NW 12 mph 13 mph 57% 0.000 in 30.00 W/m2
17:44 56.0 °F 41.0 °F 30.2 in NW 12 mph 13 mph 58% 0.000 in 23.00 W/m2
17:49 55.0 °F 41.0 °F 30.2 in NNW 12 mph 12 mph 58% 0.000 in 23.00 W/m2
17:54 55.0 °F 41.0 °F 30.2 in NNW 10 mph 11 mph 58% 0.000 in 21.00 W/m2
17:59 55.0 °F 41.0 °F 30.2 in NNW 11 mph 12 mph 59% 0.000 in 12.00 W/m2
18:04 55.0 °F 41.0 °F 30.2 in NNW 14 mph 14 mph 59% 0.000 in 5.00 W/m2
18:09 55.0 °F 41.0 °F 30.2 in NNW 10 mph 12 mph 59% 0.000 in 0.00 W/m2
18:14 54.0 °F 40.0 °F 30.2 in NNW 13 mph 14 mph 59% 0.000 in 0.00 W/m2
18:19 54.0 °F 40.0 °F 30.2 in NNW 13 mph 15 mph 59% 0.000 in 0.00 W/m2
18:24 54.0 °F 40.0 °F 30.2 in NNW 15 mph 15 mph 59% 0.000 in 0.00 W/m2
18:29 54.0 °F 40.0 °F 30.2 in NNW 13 mph 13 mph 59% 0.000 in 0.00 W/m2
18:34 54.0 °F 40.0 °F 30.2 in NNW 14 mph 15 mph 59% 0.000 in 0.00 W/m2
18:39 53.0 °F 40.0 °F 30.2 in NNW 14 mph 14 mph 60% 0.000 in 0.00 W/m2
18:44 53.0 °F 40.0 °F 30.2 in NNW 14 mph 14 mph 60% 0.000 in 0.00 W/m2
18:49 53.0 °F 40.0 °F 30.2 in NNW 11 mph 11 mph 60% 0.000 in 0.00 W/m2
18:54 53.0 °F 40.0 °F 30.2 in North 12 mph 13 mph 61% 0.000 in 0.00 W/m2
18:59 53.0 °F 40.0 °F 30.2 in North 15 mph 15 mph 61% 0.000 in 0.00 W/m2
19:04 53.0 °F 40.0 °F 30.2 in North 12 mph 12 mph 61% 0.000 in 0.00 W/m2
19:09 53.0 °F 39.0 °F 30.2 in NNW 15 mph 15 mph 61% 0.000 in 0.00 W/m2
19:14 53.0 °F 39.0 °F 30.2 in North 13 mph 14 mph 61% 0.000 in 0.00 W/m2
19:19 53.0 °F 39.0 °F 30.2 in NNW 15 mph 15 mph 61% 0.000 in 0.00 W/m2
19:24 52.0 °F 39.0 °F 30.2 in North 14 mph 14 mph 61% 0.000 in 0.00 W/m2
19:29 52.0 °F 40.0 °F 30.2 in NNW 15 mph 15 mph 62% 0.000 in 0.00 W/m2
19:34 52.0 °F 40.0 °F 30.2 in North 14 mph 15 mph 62% 0.000 in 0.00 W/m2
19:39 52.0 °F 40.0 °F 30.2 in North 12 mph 14 mph 62% 0.000 in 0.00 W/m2
19:44 52.0 °F 39.0 °F 30.2 in North 12 mph 16 mph 62% 0.000 in 0.00 W/m2
19:49 52.0 °F 39.0 °F 30.2 in North 11 mph 12 mph 62% 0.000 in 0.00 W/m2
19:54 52.0 °F 40.0 °F 30.2 in North 10 mph 12 mph 63% 0.000 in 0.00 W/m2
19:59 52.0 °F 39.0 °F 30.2 in North 11 mph 13 mph 63% 0.000 in 0.00 W/m2
20:04 52.0 °F 39.0 °F 30.2 in NNW 8 mph 10 mph 63% 0.000 in 0.00 W/m2
20:09 52.0 °F 39.0 °F 30.2 in North 12 mph 13 mph 63% 0.000 in 0.00 W/m2
20:14 52.0 °F 39.0 °F 30.2 in North 17 mph 19 mph 63% 0.000 in 0.00 W/m2
20:19 52.0 °F 39.0 °F 30.2 in North 17 mph 17 mph 63% 0.000 in 0.00 W/m2
20:24 51.0 °F 39.0 °F 30.2 in North 15 mph 19 mph 62% 0.000 in 0.00 W/m2
20:29 51.0 °F 39.0 °F 30.2 in North 16 mph 18 mph 62% 0.000 in 0.00 W/m2
20:34 51.0 °F 39.0 °F 30.2 in North 14 mph 14 mph 62% 0.000 in 0.00 W/m2
20:39 51.0 °F 39.0 °F 30.2 in North 18 mph 18 mph 62% 0.000 in 0.00 W/m2
20:44 51.0 °F 39.0 °F 30.2 in North 16 mph 16 mph 63% 0.000 in 0.00 W/m2
20:49 51.0 °F 39.0 °F 30.2 in NNE 16 mph 16 mph 63% 0.000 in 0.00 W/m2
20:54 51.0 °F 39.0 °F 30.2 in North 13 mph 13 mph 63% 0.000 in 0.00 W/m2
20:59 51.0 °F 39.0 °F 30.2 in North 16 mph 16 mph 63% 0.000 in 0.00 W/m2
21:04 51.0 °F 39.0 °F 30.2 in North 15 mph 15 mph 63% 0.000 in 0.00 W/m2
21:09 51.0 °F 39.0 °F 30.2 in North 13 mph 15 mph 63% 0.000 in 0.00 W/m2
21:14 51.0 °F 39.0 °F 30.2 in North 11 mph 15 mph 64% 0.000 in 0.00 W/m2
21:19 51.0 °F 39.0 °F 30.2 in North 13 mph 15 mph 64% 0.000 in 0.00 W/m2
21:24 51.0 °F 39.0 °F 30.2 in NNE 14 mph 15 mph 64% 0.000 in 0.00 W/m2
21:29 51.0 °F 39.0 °F 30.2 in North 13 mph 13 mph 64% 0.000 in 0.00 W/m2
21:34 51.0 °F 39.0 °F 30.2 in North 12 mph 14 mph 64% 0.000 in 0.00 W/m2
21:39 50.0 °F 39.0 °F 30.2 in NNE 11 mph 14 mph 64% 0.000 in 0.00 W/m2
21:44 50.0 °F 39.0 °F 30.2 in North 10 mph 10 mph 65% 0.000 in 0.00 W/m2
21:49 50.0 °F 39.0 °F 30.2 in NNE 13 mph 13 mph 65% 0.000 in 0.00 W/m2
21:54 50.0 °F 39.0 °F 30.2 in NNE 11 mph 13 mph 65% 0.000 in 0.00 W/m2
21:59 50.0 °F 39.0 °F 30.2 in North 10 mph 12 mph 65% 0.000 in 0.00 W/m2
22:04 50.0 °F 39.0 °F 30.2 in North 12 mph 12 mph 65% 0.000 in 0.00 W/m2
22:09 50.0 °F 39.0 °F 30.2 in North 13 mph 16 mph 65% 0.000 in 0.00 W/m2
22:14 50.0 °F 39.0 °F 30.2 in North 15 mph 16 mph 65% 0.000 in 0.00 W/m2
22:19 50.0 °F 39.0 °F 30.2 in North 12 mph 15 mph 65% 0.000 in 0.00 W/m2
22:24 50.0 °F 39.0 °F 30.2 in NNE 13 mph 14 mph 65% 0.000 in 0.00 W/m2
22:29 50.0 °F 39.0 °F 30.2 in North 15 mph 16 mph 65% 0.000 in 0.00 W/m2
22:34 50.0 °F 39.0 °F 30.2 in NNE 14 mph 16 mph 65% 0.000 in 0.00 W/m2
22:39 50.0 °F 39.0 °F 30.2 in North 15 mph 15 mph 65% 0.000 in 0.00 W/m2
22:44 50.0 °F 39.0 °F 30.2 in NNE 18 mph 18 mph 65% 0.000 in 0.00 W/m2
22:49 50.0 °F 39.0 °F 30.2 in North 15 mph 18 mph 65% 0.000 in 0.00 W/m2
22:54 50.0 °F 39.0 °F 30.2 in NNE 16 mph 16 mph 65% 0.000 in 0.00 W/m2
22:59 50.0 °F 38.0 °F 30.2 in NNE 15 mph 16 mph 65% 0.000 in 0.00 W/m2
23:04 50.0 °F 38.0 °F 30.2 in NNE 14 mph 14 mph 65% 0.000 in 0.00 W/m2
23:09 50.0 °F 38.0 °F 30.2 in North 16 mph 16 mph 65% 0.000 in 0.00 W/m2
23:14 50.0 °F 38.0 °F 30.2 in NNE 13 mph 15 mph 65% 0.000 in 0.00 W/m2
23:19 50.0 °F 38.0 °F 30.2 in North 15 mph 16 mph 65% 0.000 in 0.00 W/m2
23:24 50.0 °F 38.0 °F 30.2 in NNE 16 mph 19 mph 65% 0.000 in 0.00 W/m2
23:29 50.0 °F 38.0 °F 30.2 in NNE 17 mph 19 mph 65% 0.000 in 0.00 W/m2
23:34 50.0 °F 38.0 °F 30.2 in NNE 15 mph 17 mph 65% 0.000 in 0.00 W/m2
23:39 50.0 °F 38.0 °F 30.2 in NNE 13 mph 15 mph 65% 0.000 in 0.00 W/m2
23:44 50.0 °F 38.0 °F 30.2 in NNE 15 mph 17 mph 65% 0.000 in 0.00 W/m2
23:49 50.0 °F 38.0 °F 30.2 in NNE 14 mph 17 mph 65% 0.000 in 0.00 W/m2
23:54 50.0 °F 38.0 °F 30.2 in NNE 15 mph 16 mph 65% 0.000 in 0.00 W/m2
23:59 50.0 °F 38.0 °F 30.2 in NNE 15 mph 15 mph 65% 0.000 in 0.00 W/m2
Villages of Bridgestone, Spring, TX USA
Compliments of Weather Underground - 4 mb